Flight Track Log - Related Links

Times and Time Zones

All times are in EDT time to prevent confusion due to time zone crossing. See the SWA1910 flight status page for this flight to view local times or setup timezone preferences in your user account.

Time Position Orientation Groundspeed Altitude Reporting Facility
EDT Latitude Longitude Course Direction KTS MPH feet Rate Location/Type
Mon 05:31:33 PM 42.9833 -78.6833 36° Northeast 201 231 3,700  Level Buffalo TRACON
Mon 05:32:39 PM 42.9333 -78.6333 144° Southeast 235 270 7,600 7,140 Climbing Buffalo TRACON
Mon 05:34:32 PM 42.7981 -78.6364 181° South 290 334 25,000 3,156 Climbing Cleveland Center
Mon 05:35:32 PM 42.7106 -78.6364 180° South 311 358 16,700 -2,331 Descending Cleveland Center
Mon 05:36:00 PM 42.3705 -78.6500 180° South  Level FlightAware Approximate
Mon 05:36:33 PM 42.5961 -78.6369 180° South 362 417 20,300  Level Cleveland Center
Mon 05:37:32 PM 42.5106 -78.6314 177° South 364 419 24,000 2,370 Climbing Cleveland Center
Mon 05:38:32 PM 42.4083 -78.6317 180° South 364 419 25,000 500 Climbing Cleveland Center
Mon 05:39:32 PM 42.3097 -78.5953 165° South 364 419 25,000  Level Cleveland Center
Mon 05:40:32 PM 42.2203 -78.4917 139° Southeast 370 426 25,000  Level Cleveland Center
Mon 05:41:32 PM 42.1117 -78.3636 139° Southeast 435 501 25,000  Level Cleveland Center
Mon 05:42:32 PM 42.0133 -78.2494 139° Southeast 454 522 25,000  Level Cleveland Center
Mon 05:43:32 PM 41.9239 -78.1494 140° Southeast 459 528 25,000  Level Cleveland Center
Mon 05:44:32 PM 41.8147 -78.0256 140° Southeast 468 539 25,000  Level Cleveland Center
Mon 05:44:52 PM 41.7928 -78.0017 141° Southeast 470 541 25,000  Level New York Center
Mon 05:45:53 PM 41.6933 -77.8911 140° Southeast 470 541 25,000  Level New York Center
Mon 05:46:53 PM 41.5961 -77.7753 138° Southeast 470 541 25,000  Level New York Center
Mon 05:47:54 PM 41.4961 -77.6650 140° Southeast 470 541 25,000  Level New York Center
Mon 05:48:54 PM 41.3967 -77.5497 139° Southeast 475 547 25,000 -305 Level New York Center
Mon 05:49:52 PM 41.2944 -77.4400 141° Southeast 475 547 24,400 -807 Descending New York Center
Mon 05:50:53 PM 41.1806 -77.3158 141° Southeast 475 547 23,400 -992 Descending New York Center
Mon 05:51:53 PM 41.0803 -77.2069 141° Southeast 475 547 22,400 -992 Descending New York Center
Mon 05:52:54 PM 40.9819 -77.0958 140° Southeast 475 547 21,400 -992 Descending New York Center
Mon 05:53:54 PM 40.8833 -76.9906 141° Southeast 470 541 20,400 -1,000 Descending New York Center
Mon 05:54:54 PM 40.7889 -76.8861 140° Southeast 465 535 19,400 -1,050 Descending New York Center
Mon 05:55:54 PM 40.6986 -76.7767 137° Southeast 448 516 18,300 -1,686 Descending New York Center
Mon 05:56:55 PM 40.6081 -76.6675 138° Southeast 440 506 16,000 -1,678 Descending New York Center
Mon 05:57:52 PM 40.5236 -76.5622 137° Southeast 440 506 15,000 -508 Descending New York Center
Mon 05:58:53 PM 40.4381 -76.4839 145° Southeast 424 488 15,000  Level New York Center
Mon 05:59:53 PM 40.3231 -76.4908 183° South 377 434 15,000 -446 Level New York Center
Mon 06:00:54 PM 40.2181 -76.5067 187° South 377 434 14,100 -942 Descending New York Center
Mon 06:01:54 PM 40.1153 -76.5200 186° South 377 434 13,100 -750 Descending New York Center
Mon 06:03:42 PM 39.9333 -76.5500 187° South 363 418 12,000 -393 Descending Potomac TRACON
Mon 06:04:42 PM 39.8333 -76.5667 187° South 311 358 12,000 -347 Level Potomac TRACON
Mon 06:05:43 PM 39.7667 -76.5833 191° South 295 339 11,300 -850 Descending Potomac TRACON
Mon 06:06:49 PM 39.6667 -76.6000 187° South 291 335 10,200 -1,000 Descending Potomac TRACON
Mon 06:07:43 PM 39.6000 -76.6000 180° South 282 325 9,300 -1,000 Descending Potomac TRACON
Mon 06:08:37 PM 39.5333 -76.6333 201° Southwest 261 300 8,400 -1,000 Descending Potomac TRACON
Mon 06:09:49 PM 39.4667 -76.7000 218° Southwest 260 299 7,200 -1,000 Descending Potomac TRACON
Mon 06:10:43 PM 39.4167 -76.7667 226° Southwest 257 296 6,300 -1,211 Descending Potomac TRACON
Mon 06:11:43 PM 39.3667 -76.8167 218° Southwest 250 288 4,900 -1,150 Descending Potomac TRACON
Mon 06:12:43 PM 39.3167 -76.8667 218° Southwest 245 282 4,000 -446 Descending Potomac TRACON
Mon 06:13:44 PM 39.2500 -76.9000 201° Southwest 213 245 4,000 -298 Level Potomac TRACON
Mon 06:14:44 PM 39.2000 -76.8833 166° South 226 260 3,400 -900 Descending Potomac TRACON
Mon 06:15:44 PM 39.1833 -76.8167 108° East 219 252 2,200 -1,100 Descending Potomac TRACON
Mon 06:16:44 PM 39.1833 -76.7500 90° East 168 193 1,200 -1,000 Descending Potomac TRACON
Mon 06:18:00 PM 39.1667 -76.6667 270° West  Level FlightAware Approximate
Mon 06:25:00 PM 39.1754 -76.6683 270° West  Level Estimated
Mon 06:26:00 PM 39.1754 -76.6683 270° West  Level Estimated

Login

Don't have an account? Register now (free) for customized features, flight alerts, and more!